createdAt,value
2022-09-10T00:00:45.316Z,75.62
2022-09-10T00:01:45.502Z,75.48
2022-09-10T00:02:45.503Z,75.48
2022-09-10T00:03:45.659Z,75.38
2022-09-10T00:04:45.703Z,75.38
2022-09-10T00:05:45.702Z,75.38
2022-09-10T00:06:45.836Z,75.38
2022-09-10T02:18:48.208Z,79.79
2022-09-10T02:19:49.247Z,79.79
2022-09-10T02:20:49.347Z,79.90
2022-09-10T02:21:49.389Z,79.79
2022-09-10T02:22:49.487Z,79.75
2022-09-10T02:23:49.525Z,79.75
2022-09-10T02:24:49.669Z,79.65
2022-09-10T02:25:49.677Z,79.55
2022-09-10T02:26:49.777Z,79.41
2022-09-10T05:11:13.920Z,82.12
2022-09-10T05:12:14.989Z,82.03
2022-09-10T05:13:15.066Z,82.03
2022-09-10T05:14:15.197Z,82.03
2022-09-10T05:15:15.231Z,81.92
2022-09-10T05:16:15.394Z,81.78
2022-09-10T05:17:15.450Z,81.68
2022-09-10T05:18:15.483Z,81.58
2022-09-10T05:19:15.581Z,81.27
2022-09-10T05:20:15.663Z,80.97
2022-09-10T05:21:15.747Z,80.83
2022-09-10T05:22:15.836Z,80.63
2022-09-10T05:23:15.913Z,80.53
2022-09-10T05:24:16.026Z,80.53
2022-09-10T05:25:16.074Z,80.53
2022-09-10T05:26:16.161Z,80.53
2022-09-10T05:27:16.237Z,80.53
2022-09-10T05:28:16.319Z,80.49
2022-09-10T05:29:16.391Z,80.49
2022-09-10T05:30:16.461Z,80.49
2022-09-10T05:31:16.620Z,80.29
2022-09-10T05:32:16.626Z,80.08
2022-09-10T05:33:16.699Z,80.08
2022-09-10T05:34:16.810Z,80.08
2022-09-10T05:35:16.846Z,80.08
2022-09-10T05:36:16.933Z,80.05
2022-09-10T05:37:17.009Z,80.05
2022-09-10T05:38:17.080Z,80.05
2022-09-10T05:39:17.185Z,79.94
2022-09-10T05:40:17.263Z,79.85
2022-09-10T05:41:17.356Z,79.85
2022-09-10T05:42:17.416Z,79.85
2022-09-10T05:43:17.496Z,79.74
2022-09-10T05:44:17.615Z,79.64
2022-09-10T05:45:17.668Z,79.54
2022-09-10T05:46:17.748Z,79.54
2022-09-10T05:47:17.837Z,79.54
2022-09-10T05:48:17.922Z,79.54
2022-09-10T05:49:18.273Z,79.60
2022-09-10T05:50:18.128Z,79.60
2022-09-10T05:51:18.172Z,79.50
2022-09-10T05:52:18.256Z,79.50
2022-09-10T05:53:18.350Z,79.20
2022-09-10T05:54:18.458Z,79.00
2022-09-10T05:55:18.492Z,79.10
2022-09-10T05:56:18.571Z,79.10
2022-09-10T05:57:18.647Z,79.10
2022-09-10T05:58:18.738Z,79.10
2022-09-10T05:59:18.881Z,79.10
2022-09-10T06:00:18.909Z,79.20
2022-09-10T06:01:18.978Z,79.10
2022-09-10T06:02:23.714Z,79.10
2022-09-10T06:03:19.245Z,79.00
2022-09-10T06:04:19.253Z,79.00
2022-09-10T06:05:19.481Z,79.00
2022-09-10T06:06:19.444Z,79.00
2022-09-10T06:07:19.517Z,79.00
2022-09-10T06:16:05.515Z,79.58
2022-09-10T06:17:06.509Z,79.47
2022-09-10T06:18:06.601Z,79.58
2022-09-10T06:19:06.673Z,79.68
2022-09-10T06:20:06.690Z,79.68
2022-09-10T06:21:06.786Z,79.38
2022-09-10T06:22:07.866Z,79.38
2022-09-10T06:23:06.972Z,79.38
2022-09-10T06:24:07.047Z,79.47
2022-09-10T06:25:07.145Z,79.54
2022-09-10T06:26:07.242Z,79.44
2022-09-10T06:27:07.314Z,79.54
2022-09-10T06:28:07.406Z,79.54
2022-09-10T06:29:07.501Z,79.64
2022-09-10T06:30:07.578Z,79.54
2022-09-10T06:31:07.739Z,79.54
2022-09-10T06:32:07.738Z,79.54
2022-09-10T06:33:07.837Z,79.54
2022-09-10T06:34:08.184Z,79.54
2022-09-10T06:35:08.040Z,79.44
2022-09-10T06:36:08.110Z,79.44
2022-09-10T06:37:08.188Z,79.54
2022-09-10T06:38:08.268Z,79.44
2022-09-10T06:39:08.361Z,79.54
2022-09-10T06:40:08.458Z,79.44
2022-09-10T06:41:08.657Z,79.44
2022-09-10T06:42:08.625Z,79.54
2022-09-10T06:43:08.718Z,79.64
2022-09-10T06:44:08.792Z,79.54
2022-09-10T06:45:08.888Z,79.54
2022-09-10T06:46:24.858Z,79.54
2022-09-10T06:47:46.253Z,79.64
2022-09-10T06:49:09.249Z,79.64
2022-09-10T06:50:09.321Z,79.64
2022-09-10T06:51:09.615Z,79.64
2022-09-10T06:52:09.492Z,79.64
2022-09-10T06:53:09.578Z,79.74
2022-09-10T06:54:09.673Z,79.74
2022-09-10T06:55:09.769Z,79.74
2022-09-10T06:56:09.886Z,79.74
2022-09-10T06:57:09.931Z,79.80
2022-09-10T06:58:10.014Z,79.80
2022-09-10T06:59:10.104Z,79.80
2022-09-10T07:00:10.187Z,79.80
2022-09-10T07:01:17.395Z,79.80
2022-09-10T07:02:10.409Z,79.80
2022-09-10T07:03:10.479Z,79.80
2022-09-10T07:04:10.598Z,79.80
2022-09-10T07:06:36.878Z,79.80
2022-09-10T07:07:37.827Z,79.94
2022-09-10T07:08:38.000Z,80.15
2022-09-10T07:09:58.385Z,80.15
2022-09-10T07:10:38.117Z,80.15
2022-09-10T07:11:41.554Z,80.15
2022-09-10T07:37:09.007Z,82.29
2022-09-10T07:38:10.083Z,82.15
2022-09-10T07:39:09.998Z,82.25
2022-09-10T07:40:10.265Z,82.15
2022-09-10T07:42:33.334Z,81.85
2022-09-10T07:43:34.186Z,81.85
2022-09-10T07:44:34.274Z,81.95
2022-09-10T07:45:34.353Z,81.95
2022-09-10T07:46:34.376Z,81.81
2022-09-10T07:47:34.468Z,81.71
2022-09-10T07:48:34.551Z,81.60
2022-09-10T07:49:34.638Z,81.50
2022-09-10T07:50:34.716Z,81.40
2022-09-10T07:51:34.792Z,81.40
2022-09-10T07:52:34.946Z,81.26
2022-09-10T07:53:34.956Z,81.16
2022-09-10T07:54:35.038Z,81.16
2022-09-10T07:55:35.117Z,81.16
2022-09-10T07:56:35.236Z,81.06
2022-09-10T07:57:35.291Z,81.06
2022-09-10T07:58:35.329Z,80.96
2022-09-10T07:59:35.415Z,80.82
2022-09-10T08:00:35.490Z,80.82
2022-09-10T08:01:36.398Z,80.62
2022-09-10T08:02:35.779Z,80.52
2022-09-10T08:03:35.763Z,80.52
2022-09-10T08:04:37.077Z,80.41
2022-09-10T08:05:35.934Z,80.41
2022-09-10T08:06:36.021Z,80.41
2022-09-10T08:07:36.126Z,80.41
2022-09-10T08:08:36.313Z,80.41
2022-09-10T08:09:36.302Z,80.41
2022-09-10T08:10:36.400Z,80.41
2022-09-10T08:11:36.489Z,80.31
2022-09-10T08:12:36.669Z,80.21
2022-09-10T08:13:36.629Z,80.01
2022-09-10T08:14:36.771Z,79.91
2022-09-10T08:15:36.885Z,79.71
2022-09-10T08:27:41.117Z,82.05
2022-09-10T08:28:42.195Z,82.15
2022-09-10T08:29:42.301Z,82.25
2022-09-10T08:38:49.436Z,82.86
2022-09-10T08:39:50.526Z,82.96
2022-09-10T08:40:50.668Z,82.76
2022-09-10T08:52:56.342Z,83.37
2022-09-10T08:53:57.343Z,83.47
2022-09-10T09:07:25.228Z,83.10
2022-09-10T09:08:26.179Z,83.17
2022-09-10T09:09:26.589Z,83.17
2022-09-10T09:10:26.352Z,83.17
2022-09-10T09:11:26.429Z,83.17
2022-09-10T09:12:26.538Z,83.03
2022-09-10T09:13:26.559Z,82.92
2022-09-10T09:14:26.652Z,82.62
2022-09-10T09:15:26.978Z,82.31
2022-09-10T09:25:05.156Z,81.81
2022-09-10T09:26:06.313Z,81.60
2022-09-10T09:39:56.566Z,82.05
2022-09-10T09:40:55.681Z,81.85
2022-09-10T09:41:55.734Z,81.85
2022-09-10T09:42:55.801Z,81.81
2022-09-10T09:43:55.917Z,81.81
2022-09-10T09:44:57.257Z,81.71
2022-09-10T09:45:56.098Z,81.71
2022-09-10T09:46:56.282Z,81.77
2022-09-10T09:50:19.533Z,81.77
2022-09-10T09:55:13.856Z,82.38
2022-09-10T09:55:57.613Z,82.38
2022-09-10T10:04:41.492Z,82.28
2022-09-10T10:05:37.471Z,82.38
2022-09-10T10:06:37.681Z,82.38
2022-09-10T10:10:13.747Z,82.68
2022-09-10T10:11:14.799Z,82.78
2022-09-10T10:12:14.903Z,82.98
2022-09-10T10:13:14.977Z,82.84
2022-09-10T10:14:15.017Z,82.75
2022-09-10T10:15:15.121Z,82.54
2022-09-10T10:37:55.743Z,83.04
2022-09-10T10:38:57.009Z,83.04
2022-09-10T10:39:57.133Z,83.15
2022-09-10T10:40:56.954Z,83.21
2022-09-10T10:41:57.002Z,82.90
2022-09-10T10:42:57.087Z,82.70
2022-09-10T10:43:57.170Z,81.90
2022-09-10T10:44:57.274Z,80.64
2022-09-10T10:50:33.741Z,80.13
2022-09-10T10:51:34.817Z,79.22
2022-09-10T10:52:34.905Z,79.53
2022-09-10T10:53:34.919Z,79.53
2022-09-10T11:11:33.691Z,78.69
2022-09-10T11:12:34.739Z,78.79
2022-09-10T11:13:34.917Z,79.10
2022-09-10T11:14:34.923Z,79.30
2022-09-10T11:15:35.050Z,79.46
2022-09-10T11:16:37.445Z,79.46
2022-09-10T11:17:35.166Z,79.67
2022-09-10T11:18:35.259Z,79.87
2022-09-10T11:19:35.305Z,79.97
2022-09-10T11:20:35.422Z,80.07
2022-09-10T11:21:35.489Z,80.18
2022-09-10T11:22:35.567Z,80.44
2022-09-10T11:23:35.651Z,80.44
2022-09-10T11:24:35.732Z,80.34
2022-09-10T11:25:35.819Z,80.34
2022-09-10T11:26:35.903Z,80.34
2022-09-10T11:27:35.977Z,80.13
2022-09-10T11:28:36.153Z,80.04
2022-09-10T11:29:36.212Z,80.04
2022-09-10T11:30:36.257Z,80.04
2022-09-10T11:31:36.348Z,79.93
2022-09-10T11:32:36.415Z,79.90
2022-09-10T11:33:36.517Z,79.90
2022-09-10T11:34:36.652Z,79.90
2022-09-10T11:35:36.655Z,79.90
2022-09-10T11:36:36.739Z,80.10
2022-09-10T11:37:36.823Z,80.10
2022-09-10T11:38:37.085Z,79.90
2022-09-10T11:39:37.075Z,79.79
2022-09-10T11:40:37.062Z,79.69
2022-09-10T11:41:37.141Z,79.79
2022-09-10T11:42:37.222Z,79.90
2022-09-10T11:43:37.322Z,80.00
2022-09-10T11:44:37.365Z,80.10
2022-09-10T11:45:37.476Z,80.20
2022-09-10T11:46:37.602Z,80.26
2022-09-10T11:47:37.655Z,80.16
2022-09-10T11:48:37.777Z,80.26
2022-09-10T11:49:37.806Z,80.26
2022-09-10T11:50:37.837Z,80.26
2022-09-10T11:51:37.959Z,80.36
2022-09-10T11:52:37.991Z,80.36
2022-09-10T11:53:38.120Z,80.16
2022-09-10T11:54:38.139Z,80.06
2022-09-10T11:55:38.255Z,79.86
2022-09-10T11:56:38.309Z,79.75
2022-09-10T11:57:38.392Z,79.62
2022-09-10T11:58:38.609Z,79.52
2022-09-10T11:59:38.529Z,79.62
2022-09-10T12:00:38.618Z,79.41
2022-09-10T12:01:38.693Z,78.91
2022-09-10T12:02:38.779Z,78.81
2022-09-10T12:03:39.062Z,78.81
2022-09-10T12:04:40.416Z,78.61
2022-09-10T12:05:39.050Z,78.71
2022-09-10T12:06:39.129Z,78.44
2022-09-10T12:07:39.213Z,78.55
2022-09-10T12:08:39.323Z,78.55
2022-09-10T12:09:39.375Z,78.34
2022-09-10T12:10:39.451Z,78.34
2022-09-10T12:11:39.537Z,78.34
2022-09-10T12:12:39.611Z,78.24
2022-09-10T12:13:39.848Z,77.94
2022-09-10T12:14:39.787Z,77.94
2022-09-10T12:15:39.994Z,77.94
2022-09-10T12:16:39.946Z,77.94
2022-09-10T12:17:40.024Z,77.43
2022-09-10T12:18:42.754Z,75.01
2022-09-10T12:19:40.184Z,74.30
2022-09-10T12:20:40.266Z,73.59
2022-09-10T12:21:40.340Z,73.43
2022-09-10T12:22:40.422Z,73.02
2022-09-10T12:23:40.576Z,72.92
2022-09-10T12:24:40.555Z,72.51
2022-09-10T12:25:40.629Z,72.65
2022-09-10T12:26:40.705Z,72.95
2022-09-10T12:27:40.788Z,72.75
2022-09-10T12:28:40.897Z,72.99
2022-09-10T12:29:41.022Z,73.09
2022-09-10T12:30:41.060Z,73.09
2022-09-10T12:31:41.139Z,73.19
2022-09-10T12:32:41.225Z,73.29
2022-09-10T12:33:41.411Z,73.53
2022-09-10T12:34:41.369Z,73.93
2022-09-10T12:35:41.447Z,74.24
2022-09-10T12:36:41.517Z,74.24
2022-09-10T12:37:41.637Z,74.44
2022-09-10T12:38:41.742Z,74.74
2022-09-10T12:39:41.824Z,74.98
2022-09-10T12:40:41.861Z,75.18
2022-09-10T12:41:41.948Z,75.38
2022-09-10T12:42:42.048Z,75.59
2022-09-10T12:43:42.423Z,75.59
2022-09-10T12:44:42.227Z,75.69
2022-09-10T12:45:42.309Z,75.99
2022-09-10T12:46:44.945Z,75.99
2022-09-10T12:47:42.468Z,75.93
2022-09-10T12:48:42.562Z,76.23
2022-09-10T12:49:42.656Z,76.54
2022-09-10T12:50:42.842Z,76.64
2022-09-10T12:51:42.834Z,76.94
2022-09-10T12:52:42.911Z,77.25
2022-09-10T12:53:43.032Z,77.45
2022-09-10T12:54:43.079Z,77.55
2022-09-10T12:55:43.254Z,77.75
2022-09-10T12:56:43.250Z,77.86
2022-09-10T12:57:43.335Z,78.06
2022-09-10T12:58:43.431Z,78.22
2022-09-10T12:59:43.491Z,78.33
2022-09-10T13:00:43.577Z,78.53
2022-09-10T13:01:43.763Z,78.53
2022-09-10T13:02:43.731Z,78.53
2022-09-10T13:03:43.842Z,78.53
2022-09-10T13:04:43.896Z,78.53
2022-09-10T13:05:44.017Z,78.53
2022-09-10T13:06:44.073Z,78.53
2022-09-10T13:07:44.122Z,78.73
2022-09-10T13:08:44.205Z,78.83
2022-09-10T13:09:44.315Z,78.83
2022-09-10T13:10:44.357Z,78.83
2022-09-10T13:11:44.442Z,78.79
2022-09-10T13:12:44.541Z,78.89
2022-09-10T13:13:44.611Z,79.10
2022-09-10T13:14:44.642Z,79.30
2022-09-10T13:15:44.775Z,79.50
2022-09-10T13:16:44.820Z,79.71
2022-09-10T13:17:44.902Z,79.71
2022-09-10T13:18:44.991Z,79.60
2022-09-10T13:19:45.133Z,79.71
2022-09-10T13:20:45.116Z,80.11
2022-09-10T13:21:45.193Z,80.21
2022-09-10T13:22:45.272Z,80.31
2022-09-10T13:23:45.367Z,80.68
2022-09-10T13:24:45.496Z,80.78
2022-09-10T13:25:45.573Z,80.78
2022-09-10T13:26:45.589Z,81.79
2022-09-10T13:27:45.746Z,82.10
2022-09-10T13:28:45.758Z,81.99
2022-09-10T13:29:45.845Z,82.20
2022-09-10T13:30:45.975Z,82.06
2022-09-10T13:31:46.010Z,82.16
2022-09-10T13:32:46.082Z,81.85
2022-09-10T13:33:46.187Z,81.65
2022-09-10T13:34:46.225Z,81.45
2022-09-10T13:35:46.311Z,81.45
2022-09-10T13:36:46.392Z,81.65
2022-09-10T13:37:46.476Z,81.62
2022-09-10T13:38:46.584Z,81.62
2022-09-10T13:39:46.678Z,81.51
2022-09-10T13:40:46.722Z,81.21
2022-09-10T13:41:46.820Z,81.01
2022-09-10T13:42:46.906Z,80.91
2022-09-10T13:43:47.011Z,80.91
2022-09-10T13:44:47.065Z,80.80
2022-09-10T13:45:47.145Z,80.87
2022-09-10T13:46:47.228Z,80.80
2022-09-10T13:47:47.308Z,80.66
2022-09-10T13:48:47.403Z,80.36
2022-09-10T13:49:47.488Z,80.16
2022-09-10T13:50:47.582Z,79.96
2022-09-10T13:51:47.676Z,79.75
2022-09-10T13:52:47.796Z,79.55
2022-09-10T13:53:47.851Z,79.46
2022-09-10T13:54:47.969Z,79.25
2022-09-10T13:55:48.046Z,78.85
2022-09-10T13:56:48.047Z,78.85
2022-09-10T13:57:48.127Z,78.85
2022-09-10T13:58:48.242Z,78.95
2022-09-10T13:59:48.286Z,78.55
2022-09-10T14:00:48.372Z,78.55
2022-09-10T14:01:48.517Z,78.34
2022-09-10T14:02:48.642Z,78.55
2022-09-10T14:03:48.693Z,78.34
2022-09-10T14:04:48.732Z,78.24
2022-09-10T14:05:48.835Z,78.20
2022-09-10T14:06:48.877Z,78.10
2022-09-10T14:07:49.065Z,77.09
2022-09-10T14:08:49.347Z,76.69
2022-09-10T14:09:58.282Z,76.48
2022-09-10T14:10:49.330Z,76.59
2022-09-10T14:14:29.081Z,76.93
2022-09-10T14:15:30.099Z,77.03
2022-09-10T14:16:30.491Z,77.03
2022-09-10T14:17:30.228Z,77.03
2022-09-10T14:18:30.279Z,77.23
2022-09-10T14:19:30.387Z,77.43
2022-09-10T14:20:30.459Z,77.43
2022-09-10T14:21:30.538Z,77.60
2022-09-10T14:22:30.609Z,77.39
2022-09-10T14:23:30.690Z,76.99
2022-09-10T14:24:30.798Z,77.19
2022-09-10T14:25:30.853Z,76.99
2022-09-10T14:26:30.946Z,76.99
2022-09-10T14:27:31.084Z,76.99
2022-09-10T14:28:31.106Z,77.19
2022-09-10T14:29:31.206Z,77.26
2022-09-10T14:30:31.839Z,77.36
2022-09-10T14:31:31.376Z,77.56
2022-09-10T14:32:31.463Z,77.66
2022-09-10T14:33:31.674Z,77.56
2022-09-10T14:34:31.619Z,77.66
2022-09-10T14:35:31.663Z,77.56
2022-09-10T14:36:31.743Z,77.26
2022-09-10T14:37:31.826Z,76.86
2022-09-10T14:38:31.923Z,76.75
2022-09-10T14:39:32.028Z,76.75
2022-09-10T14:45:00.864Z,76.89
2022-09-10T14:46:08.510Z,76.59
2022-09-10T15:20:05.539Z,74.84
2022-09-10T15:21:13.021Z,75.04
2022-09-10T15:22:06.568Z,75.24
2022-09-10T15:23:06.609Z,75.61
2022-09-10T15:24:06.671Z,75.21
2022-09-10T15:25:10.226Z,74.80
2022-09-10T15:26:06.788Z,74.90
2022-09-10T15:27:06.927Z,74.57
2022-09-10T15:28:06.985Z,73.96
2022-09-10T15:29:07.047Z,73.25
2022-09-10T15:30:07.122Z,73.55
2022-09-10T15:31:07.246Z,73.66
2022-09-10T15:32:07.279Z,73.72
2022-09-10T15:33:07.384Z,73.62
2022-09-10T15:34:07.409Z,73.93
2022-09-10T15:35:07.481Z,73.93
2022-09-10T15:36:07.574Z,73.62
2022-09-10T15:37:07.675Z,73.42
2022-09-10T15:38:07.725Z,73.11
2022-09-10T15:39:07.814Z,73.18
2022-09-10T15:40:07.972Z,72.88
2022-09-10T15:41:07.975Z,72.38
2022-09-10T15:42:08.065Z,72.38
2022-09-10T15:43:08.133Z,71.97
2022-09-10T15:44:08.173Z,71.87
2022-09-10T15:45:09.171Z,71.97
2022-09-10T15:46:08.431Z,72.27
2022-09-10T15:47:08.443Z,72.48
2022-09-10T15:48:08.533Z,72.68
2022-09-10T15:49:08.632Z,72.98
2022-09-10T15:50:08.705Z,72.48
2022-09-10T15:51:08.787Z,72.07
2022-09-10T15:52:08.859Z,72.17
2022-09-10T15:53:11.848Z,72.07
2022-09-10T15:54:09.002Z,72.17
2022-09-10T15:55:09.082Z,71.26
2022-09-10T15:56:09.166Z,71.57
2022-09-10T15:57:09.234Z,70.56
2022-09-10T15:58:09.357Z,70.66
2022-09-10T15:59:09.400Z,70.86
2022-09-10T16:00:09.485Z,70.36
2022-09-10T16:01:09.615Z,70.06
2022-09-10T16:02:09.716Z,70.06
2022-09-10T16:03:09.771Z,70.36
2022-09-10T16:04:09.838Z,70.46
2022-09-10T16:05:09.867Z,70.46
2022-09-10T16:06:09.941Z,70.76
2022-09-10T16:07:10.024Z,71.06
2022-09-10T16:08:10.099Z,71.17
2022-09-10T16:09:10.165Z,70.76
2022-09-10T16:10:10.237Z,70.86
2022-09-10T16:11:10.318Z,70.56
2022-09-10T16:12:10.398Z,70.15
2022-09-10T16:13:10.686Z,70.46
2022-09-10T16:14:10.558Z,70.56
2022-09-10T16:15:10.648Z,70.46
2022-09-10T16:16:10.797Z,70.76
2022-09-10T16:17:10.800Z,70.96
2022-09-10T16:18:10.900Z,70.76
2022-09-10T16:19:10.959Z,70.66
2022-09-10T16:20:11.012Z,70.56
2022-09-10T16:21:11.086Z,70.76
2022-09-10T16:22:11.179Z,70.96
2022-09-10T16:23:11.323Z,71.17
2022-09-10T16:24:11.430Z,71.37
2022-09-10T16:25:11.477Z,71.57
2022-09-10T16:26:11.487Z,71.87
2022-09-10T16:27:11.656Z,71.57
2022-09-10T16:28:11.678Z,71.26
2022-09-10T16:29:11.746Z,71.17
2022-09-10T16:30:11.842Z,71.26
2022-09-10T16:31:11.948Z,71.47
2022-09-10T16:32:12.013Z,71.26
2022-09-10T16:33:12.131Z,71.17
2022-09-10T16:34:12.173Z,71.26
2022-09-10T16:35:12.258Z,71.37
2022-09-10T16:36:12.341Z,71.57
2022-09-10T16:37:12.456Z,71.67
2022-09-10T16:38:12.536Z,71.87
2022-09-10T16:39:12.612Z,72.07
2022-09-10T16:40:12.660Z,72.38
2022-09-10T16:41:12.729Z,72.58
2022-09-10T16:42:12.781Z,72.48
2022-09-10T16:43:12.881Z,72.38
2022-09-10T16:44:12.949Z,72.27
2022-09-10T16:45:13.059Z,72.27
2022-09-10T16:46:13.175Z,72.27
2022-09-10T16:47:13.225Z,72.17
2022-09-10T16:48:13.291Z,72.07
2022-09-10T16:49:13.315Z,72.07
2022-09-10T16:50:13.386Z,72.17
2022-09-10T16:51:13.468Z,72.17
2022-09-10T16:52:13.531Z,72.07
2022-09-10T16:53:13.673Z,72.07
2022-09-10T16:54:13.739Z,72.07
2022-09-10T16:55:14.066Z,72.07
2022-09-10T16:56:13.956Z,72.17
2022-09-10T16:57:13.981Z,72.00
2022-09-10T16:58:15.124Z,71.91
2022-09-10T16:59:14.172Z,71.80
2022-09-10T17:00:14.257Z,71.91
2022-09-10T17:01:14.336Z,71.80
2022-09-10T17:02:14.392Z,71.70
2022-09-10T17:03:14.468Z,71.50
2022-09-10T17:04:18.506Z,71.10
2022-09-10T17:05:14.635Z,70.49
2022-09-10T17:06:14.723Z,70.46
2022-09-10T17:07:14.801Z,70.69
2022-09-10T17:08:14.913Z,70.86
2022-09-10T17:09:14.967Z,71.06
2022-09-10T17:10:15.031Z,71.26
2022-09-10T17:11:15.178Z,71.37
2022-09-10T17:12:15.221Z,71.30
2022-09-10T17:13:15.512Z,71.20
2022-09-10T17:14:15.380Z,71.40
2022-09-10T17:15:15.478Z,71.40
2022-09-10T17:16:15.606Z,71.40
2022-09-10T17:17:15.660Z,71.50
2022-09-10T17:18:15.718Z,71.60
2022-09-10T17:19:15.765Z,71.30
2022-09-10T17:20:15.841Z,71.40
2022-09-10T17:21:15.943Z,71.10
2022-09-10T17:22:16.021Z,70.89
2022-09-10T17:23:16.164Z,71.00
2022-09-10T17:24:16.205Z,70.79
2022-09-10T17:25:16.294Z,70.79
2022-09-10T17:26:16.392Z,70.79
2022-09-10T17:27:16.432Z,71.00
2022-09-10T17:28:16.547Z,71.00
2022-09-10T17:29:16.631Z,71.00
2022-09-10T17:30:16.720Z,70.89
2022-09-10T17:31:16.824Z,70.79
2022-09-10T17:32:16.898Z,70.79
2022-09-10T17:33:16.999Z,70.89
2022-09-10T17:34:17.077Z,70.89
2022-09-10T17:35:17.166Z,70.49
2022-09-10T17:36:17.237Z,70.59
2022-09-10T17:37:17.320Z,70.69
2022-09-10T17:38:17.375Z,71.00
2022-09-10T17:39:17.501Z,71.10
2022-09-10T17:40:17.592Z,70.69
2022-09-10T17:41:17.695Z,70.49
2022-09-10T17:42:17.724Z,70.09
2022-09-10T17:43:17.858Z,69.68
2022-09-10T17:44:17.898Z,69.89
2022-09-10T17:45:17.979Z,70.09
2022-09-10T17:46:18.165Z,70.29
2022-09-10T17:47:18.146Z,70.39
2022-09-10T17:48:18.229Z,70.49
2022-09-10T17:49:18.314Z,70.59
2022-09-10T17:50:18.391Z,70.49
2022-09-10T17:51:18.477Z,70.59
2022-09-10T17:52:18.606Z,70.69
2022-09-10T17:53:18.687Z,70.79
2022-09-10T17:54:18.717Z,70.89
2022-09-10T17:55:18.833Z,70.89
2022-09-10T17:56:18.902Z,70.79
2022-09-10T17:57:18.933Z,70.79
2022-09-10T17:58:19.036Z,70.89
2022-09-10T17:59:19.110Z,70.89
2022-09-10T18:00:19.190Z,71.03
2022-09-10T18:01:23.156Z,71.03
2022-09-10T18:02:19.363Z,71.10
2022-09-10T18:03:19.465Z,71.23
2022-09-10T18:04:19.542Z,71.33
2022-09-10T18:05:19.622Z,71.44
2022-09-10T18:06:19.738Z,71.33
2022-09-10T18:07:19.776Z,70.93
2022-09-10T18:08:19.887Z,71.03
2022-09-10T18:09:19.965Z,70.93
2022-09-10T18:10:20.039Z,70.83
2022-09-10T18:11:20.150Z,70.53
2022-09-10T18:12:20.193Z,70.22
2022-09-10T18:13:20.493Z,70.32
2022-09-10T18:14:20.367Z,70.53
2022-09-10T18:15:20.495Z,70.62
2022-09-10T18:16:20.525Z,70.73
2022-09-10T18:17:20.614Z,70.83
2022-09-10T18:18:20.734Z,70.62
2022-09-10T18:19:20.826Z,70.62
2022-09-10T18:20:20.864Z,70.73
2022-09-10T18:21:20.943Z,70.73
2022-09-10T18:22:21.017Z,70.53
2022-09-10T18:23:21.122Z,70.22
2022-09-10T18:24:21.179Z,70.42
2022-09-10T18:25:21.287Z,70.53
2022-09-10T18:26:21.338Z,70.53
2022-09-10T18:27:21.451Z,70.62
2022-09-10T18:28:21.530Z,70.53
2022-09-10T18:29:21.575Z,70.53
2022-09-10T18:30:21.652Z,70.73
2022-09-10T18:31:21.775Z,70.73
2022-09-10T18:32:21.797Z,70.83
2022-09-10T18:33:21.939Z,70.83
2022-09-10T18:34:23.142Z,70.42
2022-09-10T18:35:22.099Z,70.42
2022-09-10T18:36:22.129Z,70.32
2022-09-10T18:37:22.199Z,70.32
2022-09-10T18:38:22.328Z,70.42
2022-09-10T18:39:22.395Z,70.42
2022-09-10T18:40:22.457Z,70.42
2022-09-10T18:41:22.540Z,70.53
2022-09-10T18:42:22.618Z,70.62
2022-09-10T18:43:22.714Z,70.73
2022-09-10T18:44:22.795Z,70.83
2022-09-10T18:45:22.875Z,70.83
2022-09-10T18:46:22.995Z,70.86
2022-09-10T18:47:43.634Z,70.86
2022-09-10T18:48:23.164Z,70.96
2022-09-10T18:49:23.186Z,71.06
2022-09-10T18:50:23.271Z,71.17
2022-09-10T18:51:23.344Z,71.13
2022-09-10T18:52:23.613Z,71.06
2022-09-10T18:53:23.541Z,70.86
2022-09-10T18:54:23.569Z,70.66
2022-09-10T18:55:23.694Z,70.76
2022-09-10T18:56:23.756Z,70.76
2022-09-10T18:57:23.830Z,70.86
2022-09-10T18:58:23.957Z,71.06
2022-09-10T18:59:24.007Z,71.26
2022-09-10T19:00:24.097Z,71.17
2022-09-10T19:01:24.387Z,71.17
2022-09-10T19:02:24.433Z,71.26
2022-09-10T19:03:24.385Z,71.17
2022-09-10T19:04:24.444Z,71.06
2022-09-10T19:05:24.502Z,71.06
2022-09-10T19:06:24.576Z,71.17
2022-09-10T19:07:24.689Z,71.26
2022-09-10T19:08:25.018Z,71.06
2022-09-10T19:09:24.835Z,71.06
2022-09-10T19:10:24.906Z,71.17
2022-09-10T19:11:25.006Z,70.66
2022-09-10T19:12:25.114Z,70.56
2022-09-10T19:13:25.393Z,70.66
2022-09-10T19:14:25.274Z,70.66
2022-09-10T19:15:25.397Z,70.76
2022-09-10T19:16:25.435Z,70.86
2022-09-10T19:17:25.525Z,70.46
2022-09-10T19:18:25.624Z,70.25
2022-09-10T19:19:25.700Z,70.46
2022-09-10T19:20:25.777Z,70.46
2022-09-10T19:21:25.847Z,70.15
2022-09-10T19:22:25.950Z,70.15
2022-09-10T19:23:26.034Z,70.36
2022-09-10T19:24:43.895Z,70.46
2022-09-10T19:25:26.186Z,70.46
2022-09-10T19:26:26.227Z,70.66
2022-09-10T19:27:26.311Z,70.36
2022-09-10T19:28:26.430Z,70.05
2022-09-10T19:29:26.454Z,70.15
2022-09-10T19:30:26.535Z,70.15
2022-09-10T19:31:26.707Z,70.25
2022-09-10T19:32:26.677Z,70.36
2022-09-10T19:33:26.796Z,70.15
2022-09-10T19:34:26.854Z,70.25
2022-09-10T19:35:26.921Z,70.36
2022-09-10T19:36:27.012Z,70.15
2022-09-10T19:37:27.091Z,70.15
2022-09-10T19:38:37.449Z,70.05
2022-09-10T19:39:27.269Z,70.15
2022-09-10T19:40:27.359Z,70.05
2022-09-10T19:41:27.434Z,70.25
2022-09-10T19:42:27.515Z,70.46
2022-09-10T19:43:27.646Z,70.46
2022-09-10T19:44:27.687Z,70.46
2022-09-10T19:45:27.841Z,70.46
2022-09-10T19:46:27.894Z,70.36
2022-09-10T19:47:27.925Z,70.36
2022-09-10T19:48:28.089Z,70.46
2022-09-10T19:49:28.099Z,70.66
2022-09-10T19:50:28.242Z,70.66
2022-09-10T19:51:28.267Z,70.15
2022-09-10T19:52:28.352Z,70.15
2022-09-10T19:53:28.450Z,70.46
2022-09-10T19:54:28.497Z,70.66
2022-09-10T19:55:28.596Z,70.66
2022-09-10T19:56:28.690Z,70.56
2022-09-10T19:57:28.774Z,70.66
2022-09-10T19:58:28.886Z,70.36
2022-09-10T19:59:28.929Z,70.36
2022-09-10T20:00:45.750Z,70.36
2022-09-10T20:01:29.121Z,70.46
2022-09-10T20:02:29.215Z,70.46
2022-09-10T20:03:29.296Z,70.56
2022-09-10T20:04:29.380Z,70.36
2022-09-10T20:05:29.420Z,70.36
2022-09-10T20:06:29.499Z,70.46
2022-09-10T20:07:29.585Z,70.05
2022-09-10T20:08:29.706Z,70.05
2022-09-10T20:09:29.730Z,70.05
2022-09-10T20:10:29.811Z,70.25
2022-09-10T20:11:29.895Z,69.95
2022-09-10T20:12:29.982Z,70.05
2022-09-10T20:13:30.294Z,70.05
2022-09-10T20:14:30.162Z,70.25
2022-09-10T20:15:30.186Z,70.36
2022-09-10T20:16:30.328Z,70.25
2022-09-10T20:17:30.326Z,69.95
2022-09-10T20:18:30.420Z,69.65
2022-09-10T20:19:30.460Z,69.55
2022-09-10T20:20:30.542Z,69.55
2022-09-10T20:21:30.629Z,69.85
2022-09-10T20:22:30.724Z,69.75
2022-09-10T20:23:30.779Z,69.55
2022-09-10T20:24:30.873Z,69.65
2022-09-10T20:25:30.943Z,69.55
2022-09-10T20:26:31.020Z,69.45
2022-09-10T20:27:31.112Z,69.55
2022-09-10T20:28:31.242Z,69.55
2022-09-10T20:29:31.263Z,69.45
2022-09-10T20:30:31.345Z,69.45
2022-09-10T20:31:31.507Z,69.45
2022-09-10T20:32:31.493Z,69.34
2022-09-10T20:33:31.585Z,68.84
2022-09-10T20:34:31.647Z,68.84
2022-09-10T20:35:31.731Z,68.74
2022-09-10T20:36:31.805Z,68.74
2022-09-10T20:37:31.885Z,68.03
2022-09-10T20:38:32.013Z,68.13
2022-09-10T20:39:32.057Z,68.03
2022-09-10T20:40:32.138Z,67.72
2022-09-10T20:41:32.221Z,67.93
2022-09-10T20:42:32.296Z,68.03
2022-09-10T20:43:32.419Z,68.23
2022-09-10T20:44:32.471Z,68.13
2022-09-10T20:45:32.526Z,68.33
2022-09-10T20:46:32.646Z,68.54
2022-09-10T20:47:32.703Z,68.63
2022-09-10T20:48:32.863Z,68.63
2022-09-10T20:49:32.858Z,68.74
2022-09-10T20:50:32.975Z,68.63
2022-09-10T20:51:33.024Z,68.03
2022-09-10T20:52:33.119Z,67.83
2022-09-10T20:53:33.212Z,67.72
2022-09-10T20:54:33.327Z,67.83
2022-09-10T20:55:33.380Z,68.16
2022-09-10T20:56:33.466Z,68.37
2022-09-10T20:57:33.554Z,68.23
2022-09-10T20:58:33.646Z,68.23
2022-09-10T20:59:33.764Z,68.37
2022-09-10T21:00:33.818Z,68.54
2022-09-10T21:01:34.086Z,68.54
2022-09-10T21:02:34.314Z,68.77
2022-09-10T21:03:34.080Z,68.77
2022-09-10T21:04:34.130Z,68.57
2022-09-10T21:05:34.201Z,68.47
2022-09-10T21:06:34.315Z,68.54
2022-09-10T21:07:34.353Z,68.54
2022-09-10T21:08:34.450Z,68.37